.
WxDataArchive / Data Records for 2013-07-29
2013-07-28 July 2013 2013-07-30

Data Records for Monday, 29 July 2013

Time	Temp	Chill	HIndex	Humid	Dewpt	 Wind 	HiWind	WindDir	Rain 	Barom 
-----	----	-----	------	-----	-----	------	------	-------	-----	----- 
00:00	54.7	54.7	54.7	85	50.3	0	0	---	0.00	30.008 
00:05	54.5	54.5	54.5	85	50.1	0	0	---	0.00	30.008 
00:10	54.4	54.4	54.4	86	50.3	0	0	---	0.00	30.008 
00:15	54.2	54.2	54.2	86	50.1	0	0	---	0.00	30.006 
00:20	54.1	54.1	54.1	86	50.0	0	0	---	0.00	30.006 
00:25	53.9	53.9	53.9	87	50.1	0	0	---	0.00	30.006 
00:30	53.8	53.8	53.8	87	50.0	0	0	---	0.00	30.011 
00:35	53.6	53.6	53.6	87	49.8	0	0	---	0.00	30.011 
00:40	53.5	53.5	53.5	88	50.0	0	0	---	0.00	30.011 
00:45	53.3	53.3	53.3	88	49.8	0	0	---	0.00	30.015 
00:50	53.2	53.2	53.2	88	49.7	0	0	---	0.00	30.015 
00:55	53.1	53.1	53.1	88	49.6	0	0	---	0.00	30.015 
01:00	53.1	53.1	53.1	88	49.6	0	0	---	0.00	30.014 
01:05	52.9	52.9	52.9	89	49.7	0	0	---	0.00	30.014 
01:10	52.9	52.9	52.9	89	49.7	0	0	---	0.00	30.014 
01:15	52.9	52.9	52.9	89	49.7	0	0	---	0.00	30.015 
01:20	52.9	52.9	52.9	89	49.7	0	0	---	0.00	30.015 
01:25	52.9	52.9	52.9	89	49.7	0	0	---	0.00	30.015 
01:30	52.8	52.8	52.8	89	49.6	0	0	---	0.00	30.017 
01:35	52.8	52.8	52.8	89	49.6	0	0	---	0.00	30.017 
01:40	52.6	52.6	52.6	90	49.7	0	0	---	0.00	30.017 
01:45	52.6	52.6	52.6	90	49.7	0	0	---	0.00	30.014 
01:50	52.6	52.6	52.6	90	49.7	0	0	---	0.00	30.014 
01:55	52.6	52.6	52.6	90	49.7	0	0	---	0.00	30.014 
02:00	52.5	52.5	52.5	90	49.7	0	0	---	0.00	30.013 
02:05	52.5	52.5	52.5	90	49.7	0	0	---	0.00	30.013 
02:10	52.5	52.5	52.5	90	49.7	0	0	---	0.00	30.013 
02:15	52.5	52.5	52.5	90	49.7	0	0	---	0.00	30.016 
02:20	52.5	52.5	52.5	90	49.7	0	0	---	0.00	30.016 
02:25	52.5	52.5	52.5	90	49.7	0	0	---	0.00	30.016 
02:30	52.5	52.5	52.5	90	49.7	0	0	---	0.00	30.013 
02:35	52.6	52.6	52.6	90	49.7	0	0	---	0.00	30.013 
02:40	52.6	52.6	52.6	89	49.4	0	0	---	0.00	30.013 
02:45	52.8	52.8	52.8	89	49.6	0	0	---	0.00	30.019 
02:50	52.8	52.8	52.8	89	49.6	0	0	---	0.00	30.019 
02:55	52.8	52.8	52.8	89	49.6	0	0	---	0.00	30.019 
03:00	52.6	52.6	52.6	88	49.1	0	0	---	0.00	30.022 
03:05	52.6	52.6	52.6	88	49.1	0	0	---	0.00	30.022 
03:10	52.6	52.6	52.6	88	49.1	0	0	---	0.00	30.022 
03:15	52.6	52.6	52.6	88	49.1	0	0	---	0.00	30.020 
03:20	52.5	52.5	52.5	88	49.0	0	0	---	0.00	30.020 
03:25	52.5	52.5	52.5	88	49.0	0	0	---	0.00	30.020 
03:30	52.3	52.3	52.3	88	48.9	0	0	---	0.00	30.022 
03:35	52.3	52.3	52.3	88	48.9	0	0	---	0.00	30.022 
03:40	52.3	52.3	52.3	88	48.9	0	0	---	0.00	30.022 
03:45	52.3	52.3	52.3	88	48.9	0	0	---	0.00	30.021 
03:50	52.3	52.3	52.3	88	48.9	0	0	---	0.00	30.021 
03:55	52.3	52.3	52.3	88	48.9	0	0	---	0.00	30.021 
04:00	52.3	52.3	52.3	88	48.9	0	0	---	0.00	30.023 
04:05	52.3	52.3	52.3	88	48.9	0	0	---	0.00	30.023 
04:10	52.3	52.3	52.3	88	48.9	0	0	---	0.00	30.023 
04:15	52.3	52.3	52.3	88	48.9	0	0	---	0.00	30.024 
04:20	52.3	52.3	52.3	88	48.9	0	0	---	0.00	30.024 
04:25	52.3	52.3	52.3	88	48.9	0	0	---	0.00	30.024 
04:30	52.3	52.3	52.3	88	48.9	0	0	---	0.00	30.024 
04:35	52.3	52.3	52.3	88	48.9	0	0	---	0.00	30.024 
04:40	52.3	52.3	52.3	88	48.9	0	0	---	0.00	30.024 
04:45	52.3	52.3	52.3	88	48.9	0	0	---	0.00	30.026 
04:50	52.3	52.3	52.3	88	48.9	0	0	---	0.00	30.026 
04:55	52.3	52.3	52.3	88	48.9	0	0	---	0.00	30.026 
05:00	52.2	52.2	52.2	88	48.8	0	0	---	0.00	30.028 
05:05	52.2	52.2	52.2	88	48.8	0	0	---	0.00	30.028 
05:10	52.3	52.3	52.3	88	48.9	0	0	---	0.00	30.028 
05:15	52.3	52.3	52.3	87	48.5	0	0	---	0.00	30.025 
05:20	52.3	52.3	52.3	87	48.5	0	0	---	0.00	30.025 
05:25	52.3	52.3	52.3	87	48.5	0	0	---	0.00	30.025 
05:30	52.3	52.3	52.3	87	48.5	0	0	---	0.00	30.032 
05:35	52.3	52.3	52.3	87	48.5	0	0	---	0.00	30.032 
05:40	52.3	52.3	52.3	87	48.5	0	0	---	0.00	30.032 
05:45	52.3	52.3	52.3	87	48.5	0	0	---	0.00	30.035 
05:50	52.3	52.3	52.3	87	48.5	0	0	---	0.00	30.035 
05:55	52.5	52.5	52.5	87	48.7	0	0	---	0.00	30.035 
06:00	52.8	52.8	52.8	86	48.7	0	1	270	0.00	30.035 
06:05	52.9	52.9	52.9	86	48.8	0	0	---	0.00	30.035 
06:10	53.2	53.2	53.2	85	48.8	0	0	---	0.00	30.035 
06:15	53.3	53.3	53.3	85	48.9	0	1	270	0.00	30.037 
06:20	53.5	53.5	53.5	84	48.8	0	0	---	0.00	30.037 
06:25	53.6	53.6	53.6	84	48.9	0	0	---	0.00	30.037 
06:30	53.6	53.6	53.6	84	48.9	0	0	---	0.00	30.043 
06:35	53.8	53.8	53.8	83	48.8	0	0	---	0.00	30.043 
06:40	53.8	53.8	53.8	83	48.8	0	1	270	0.00	30.043 
06:45	53.9	53.9	53.9	83	48.9	0	1	270	0.00	30.045 
06:50	54.1	54.1	54.1	83	49.1	0	1	270	0.00	30.045 
06:55	54.1	54.1	54.1	83	49.1	0	0	---	0.00	30.045 
07:00	54.2	54.2	54.2	82	48.8	0	0	---	0.00	30.050 
07:05	54.4	54.4	54.4	82	49.0	0	0	---	0.00	30.050 
07:10	54.4	54.4	54.4	82	49.0	0	1	270	0.00	30.050 
07:15	54.5	54.5	54.5	82	49.1	0	1	270	0.00	30.052 
07:20	54.7	54.7	54.7	82	49.3	0	1	270	0.00	30.052 
07:25	54.8	54.8	54.8	82	49.4	0	1	270	0.00	30.052 
07:30	55.1	55.1	55.1	81	49.4	0	1	270	0.00	30.056 
07:35	55.4	55.4	55.4	81	49.7	0	1	270	0.00	30.056 
07:40	55.9	55.9	55.9	80	49.8	0	2	270	0.00	30.056 
07:45	56.2	56.2	56.2	80	50.1	0	1	270	0.00	30.063 
07:50	56.6	56.6	56.6	79	50.2	0	2	270	0.00	30.063 
07:55	57.0	57.0	57.0	78	50.2	0	2	270	0.00	30.063 
08:00	57.5	57.5	57.5	77	50.3	0	2	270	0.00	30.063 
08:05	57.8	57.8	57.8	77	50.6	0	2	270	0.00	30.063 
08:10	58.3	58.3	58.3	76	50.8	0	2	270	0.00	30.063 
08:15	58.7	58.7	58.7	75	50.8	1	2	270	0.00	30.065 
08:20	59.2	59.2	59.2	73	50.5	1	2	270	0.00	30.065 
08:25	59.5	59.5	59.5	73	50.8	1	3	270	0.00	30.065 
08:30	59.9	59.9	59.9	73	51.2	1	2	270	0.00	30.065 
08:35	60.2	60.2	60.2	72	51.1	1	3	270	0.00	30.065 
08:40	60.5	60.5	60.5	71	51.0	1	4	270	0.00	30.065 
08:45	60.9	60.9	60.9	71	51.4	0	2	270	0.00	30.071 
08:50	61.3	61.3	61.3	70	51.4	0	2	270	0.00	30.071 
08:55	61.8	61.8	61.8	69	51.5	1	3	270	0.00	30.071 
09:00	62.0	62.0	62.0	69	51.7	1	3	270	0.00	30.076 
09:05	62.1	62.1	62.1	70	52.2	1	3	270	0.00	30.076 
09:10	62.4	62.4	62.4	69	52.1	1	3	270	0.00	30.076 
09:15	62.4	62.4	62.4	68	51.7	1	3	270	0.00	30.079 
09:20	62.6	62.6	62.6	69	52.3	1	3	270	0.00	30.079 
09:25	63.1	63.1	63.1	69	52.8	0	2	270	0.00	30.079 
09:30	63.5	63.5	63.5	68	52.7	0	2	270	0.00	30.081 
09:35	64.2	64.2	64.2	67	53.0	0	3	270	0.00	30.081 
09:40	64.7	64.7	64.7	66	53.1	0	2	270	0.00	30.081 
09:45	65.3	65.3	65.3	65	53.2	1	3	270	0.00	30.079 
09:50	65.2	65.2	65.2	65	53.1	1	4	270	0.00	30.079 
09:55	65.2	65.2	65.2	66	53.5	0	3	270	0.00	30.079 
10:00	65.2	65.2	65.2	66	53.5	0	2	292	0.00	30.079 
10:05	65.3	65.3	65.3	66	53.6	0	3	292	0.00	30.079 
10:10	65.5	65.5	65.5	65	53.4	0	2	292	0.00	30.079 
10:15	65.6	65.6	65.6	66	53.9	0	3	292	0.00	30.081 
10:20	65.8	65.8	65.8	65	53.7	0	2	292	0.00	30.081 
10:25	66.0	66.0	66.0	65	53.9	0	2	292	0.00	30.081 
10:30	66.3	66.3	66.3	65	54.2	1	3	292	0.00	30.087 
10:35	66.4	66.4	66.4	63	53.4	2	4	292	0.00	30.087 
10:40	66.6	66.6	66.6	63	53.6	1	3	292	0.00	30.087 
10:45	66.6	66.6	66.6	63	53.6	2	5	292	0.00	30.093 
10:50	66.4	66.4	66.4	64	53.8	3	6	338	0.00	30.093 
10:55	66.4	66.4	66.4	64	53.8	1	3	292	0.00	30.093 
11:00	66.4	66.4	66.4	64	53.8	1	3	292	0.00	30.100 
11:05	66.6	66.6	66.6	63	53.6	1	5	292	0.00	30.100 
11:10	66.6	66.6	66.6	63	53.6	2	4	270	0.00	30.100 
11:15	66.8	66.8	66.8	64	54.2	1	3	270	0.00	30.100 
11:20	67.1	67.1	67.1	63	54.1	2	3	338	0.00	30.100 
11:25	67.6	67.6	67.6	62	54.1	2	4	270	0.00	30.100 
11:30	67.9	67.9	67.9	62	54.4	1	3	315	0.00	30.103 
11:35	68.3	68.3	68.3	59	53.4	3	6	292	0.00	30.103 
11:40	68.4	68.4	68.4	59	53.5	2	5	270	0.00	30.103 
11:45	68.4	68.4	68.4	59	53.5	2	6	270	0.00	30.107 
11:50	68.1	68.1	68.1	59	53.2	3	6	270	0.00	30.107 
11:55	67.8	67.8	67.8	59	52.9	2	4	270	0.00	30.107 
12:00	68.4	68.4	68.4	60	54.0	2	6	315	0.00	30.105 
12:05	69.4	69.4	69.4	61	55.4	2	4	270	0.00	30.105 
12:10	70.3	70.3	70.3	57	54.3	2	7	270	0.00	30.105 
12:15	69.8	69.8	69.8	55	52.9	2	5	270	0.00	30.105 
12:20	69.4	69.4	69.4	56	53.0	2	3	270	0.00	30.105 
12:25	69.3	69.3	69.3	56	52.9	2	5	270	0.00	30.105 
12:30	69.1	69.1	69.1	56	52.7	1	3	270	0.00	30.108 
12:35	68.9	68.9	68.9	56	52.5	1	4	270	0.00	30.108 
12:40	69.6	69.6	69.6	57	53.7	3	6	270	0.00	30.108 
12:45	71.1	71.1	71.1	54	53.6	2	5	338	0.00	30.106 
12:50	70.9	70.9	70.9	50	51.3	3	6	270	0.00	30.106 
12:55	70.3	70.3	70.3	51	51.3	3	6	270	0.00	30.106 
13:00	69.9	69.9	69.9	53	52.0	1	3	270	0.00	30.108 
13:05	70.1	70.1	70.1	53	52.2	2	5	292	0.00	30.108 
13:10	70.3	70.3	70.3	53	52.3	2	3	270	0.00	30.108 
13:15	70.4	70.4	70.4	53	52.4	2	5	270	0.00	30.110 
13:20	70.4	70.4	70.4	53	52.4	2	5	270	0.00	30.110 
13:25	70.3	70.3	70.3	52	51.8	1	4	270	0.00	30.110 
13:30	70.3	70.3	70.3	53	52.3	2	4	270	0.00	30.112 
13:35	69.9	69.9	69.9	54	52.5	2	5	270	0.00	30.112 
13:40	70.1	70.1	70.1	54	52.7	1	4	270	0.00	30.112 
13:45	70.1	70.1	70.1	53	52.2	2	11	270	0.00	30.111 
13:50	70.1	70.1	70.1	54	52.7	2	5	270	0.00	30.111 
13:55	70.3	70.3	70.3	54	52.9	2	5	270	0.00	30.111 
14:00	70.4	70.4	70.4	54	52.9	2	4	315	0.00	30.113 
14:05	70.3	70.3	70.3	55	53.4	1	4	270	0.00	30.113 
14:10	69.9	69.9	69.9	55	53.0	2	7	292	0.00	30.113 
14:15	69.9	69.9	69.9	55	53.0	1	3	270	0.00	30.117 
14:20	69.9	69.9	69.9	55	53.0	2	5	270	0.00	30.117 
14:25	70.1	70.1	70.1	55	53.2	2	4	270	0.00	30.117 
14:30	70.3	70.3	70.3	54	52.9	2	4	270	0.00	30.121 
14:35	70.4	70.4	70.4	54	52.9	2	4	270	0.00	30.121 
14:40	70.8	70.8	70.8	55	53.8	1	3	270	0.00	30.121 
14:45	70.8	70.8	70.8	54	53.3	2	4	270	0.00	30.119 
14:50	70.6	70.6	70.6	54	53.1	1	4	270	0.00	30.119 
14:55	70.4	70.4	70.4	55	53.4	1	3	270	0.00	30.119 
15:00	70.3	70.3	70.3	56	53.8	1	3	270	0.00	30.122 
15:05	70.4	70.4	70.4	56	53.9	1	5	270	0.00	30.122 
15:10	70.8	70.8	70.8	56	54.3	1	3	270	0.00	30.122 
15:15	70.9	70.9	70.9	55	53.9	1	3	270	0.00	30.121 
15:20	70.9	70.9	70.9	56	54.4	1	3	270	0.00	30.121 
15:25	70.8	70.8	70.8	56	54.3	1	3	270	0.00	30.121 
15:30	71.3	71.3	71.3	56	54.8	1	3	270	0.00	30.118 
15:35	71.3	71.3	71.3	53	53.3	2	5	270	0.00	30.118 
15:40	71.1	71.1	71.1	55	54.1	2	6	270	0.00	30.118 
15:45	71.3	71.3	71.3	55	54.3	1	4	270	0.00	30.123 
15:50	71.3	71.3	71.3	55	54.3	0	3	270	0.00	30.123 
15:55	71.5	71.5	71.5	57	55.5	0	2	270	0.00	30.123 
16:00	72.0	72.0	72.0	54	54.4	1	3	270	0.00	30.122 
16:05	72.1	72.1	72.1	56	55.5	0	1	270	0.00	30.122 
16:10	71.8	71.8	71.8	54	54.2	1	4	270	0.00	30.122 
16:15	71.5	71.5	71.5	55	54.5	2	5	270	0.00	30.124 
16:20	71.3	71.3	71.3	56	54.8	2	4	292	0.00	30.124 
16:25	71.6	71.6	71.6	55	54.6	1	4	292	0.00	30.124 
16:30	72.0	72.0	72.0	55	54.9	1	4	292	0.00	30.121 
16:35	72.1	72.1	72.1	54	54.5	1	3	292	0.00	30.121 
16:40	72.7	72.7	72.7	54	55.1	2	4	292	0.00	30.121 
16:45	73.3	73.3	73.3	54	55.6	1	3	292	0.00	30.117 
16:50	73.3	73.3	73.3	52	54.6	1	3	292	0.00	30.117 
16:55	73.0	73.0	73.0	54	55.4	1	4	292	0.00	30.117 
17:00	72.5	72.5	72.5	55	55.4	1	3	292	0.00	30.122 
17:05	72.1	72.1	72.1	55	55.0	1	4	292	0.00	30.122 
17:10	72.1	72.1	72.1	54	54.5	2	4	292	0.00	30.122 
17:15	72.3	72.3	72.3	54	54.7	1	3	292	0.00	30.124 
17:20	72.8	72.8	72.8	54	55.2	1	4	292	0.00	30.124 
17:25	72.5	72.5	72.5	54	54.9	2	5	315	0.00	30.124 
17:30	72.0	72.0	72.0	55	54.9	2	5	270	0.00	30.125 
17:35	72.0	72.0	72.0	55	54.9	1	2	270	0.00	30.125 
17:40	72.0	72.0	72.0	55	54.9	0	2	270	0.00	30.125 
17:45	72.1	72.1	72.1	56	55.5	1	2	270	0.00	30.121 
17:50	72.3	72.3	72.3	55	55.2	1	3	270	0.00	30.121 
17:55	72.5	72.5	72.5	54	54.9	1	3	270	0.00	30.121 
18:00	72.5	72.5	72.5	54	54.9	1	2	270	0.00	30.122 
18:05	72.3	72.3	72.3	54	54.7	1	3	270	0.00	30.122 
18:10	71.8	71.8	71.8	54	54.2	1	2	270	0.00	30.122 
18:15	71.5	71.5	71.5	55	54.5	1	2	270	0.00	30.124 
18:20	71.5	71.5	71.5	55	54.5	0	2	270	0.00	30.124 
18:25	72.0	72.0	72.0	54	54.4	1	3	270	0.00	30.124 
18:30	72.3	72.3	72.3	53	54.2	2	6	338	0.00	30.127 
18:35	72.1	72.1	72.1	53	54.0	1	3	315	0.00	30.127 
18:40	72.0	72.0	72.0	54	54.4	1	3	292	0.00	30.127 
18:45	72.0	72.0	72.0	53	53.9	0	2	292	0.00	30.137 
18:50	72.1	72.1	72.1	52	53.5	1	3	292	0.00	30.137 
18:55	72.3	72.3	72.3	52	53.7	1	3	292	0.00	30.137 
19:00	72.1	72.1	72.1	53	54.0	1	3	292	0.00	30.140 
19:05	72.1	72.1	72.1	54	54.5	1	3	292	0.00	30.140 
19:10	72.0	72.0	72.0	54	54.4	0	1	292	0.00	30.140 
19:15	71.8	71.8	71.8	55	54.7	0	2	292	0.00	30.136 
19:20	72.0	72.0	72.0	55	54.9	1	2	292	0.00	30.136 
19:25	72.3	72.3	72.3	54	54.7	1	3	292	0.00	30.136 
19:30	72.7	72.7	72.7	54	55.1	0	2	292	0.00	30.138 
19:35	72.7	72.7	72.7	53	54.6	1	2	292	0.00	30.138 
19:40	72.5	72.5	72.5	53	54.4	1	4	292	0.00	30.138 
19:45	72.3	72.3	72.3	54	54.7	1	4	292	0.00	30.138 
19:50	72.3	72.3	72.3	54	54.7	0	2	292	0.00	30.138 
19:55	72.1	72.1	72.1	53	54.0	1	3	292	0.00	30.138 
20:00	72.0	72.0	72.0	53	53.9	1	3	292	0.00	30.145 
20:05	72.0	72.0	72.0	54	54.4	0	2	292	0.00	30.145 
20:10	71.6	71.6	71.6	54	54.1	1	2	292	0.00	30.145 
20:15	71.5	71.5	71.5	54	54.0	1	2	292	0.00	30.146 
20:20	71.3	71.3	71.3	55	54.3	0	1	292	0.00	30.146 
20:25	71.1	71.1	71.1	56	54.6	0	2	292	0.00	30.146 
20:30	70.9	70.9	70.9	56	54.4	0	0	---	0.00	30.150 
20:35	70.6	70.6	70.6	57	54.6	0	1	292	0.00	30.150 
20:40	70.3	70.3	70.3	58	54.8	0	1	292	0.00	30.150 
20:45	70.1	70.1	70.1	58	54.6	0	1	292	0.00	30.151 
20:50	69.8	69.8	69.8	58	54.3	0	0	---	0.00	30.151 
20:55	69.4	69.4	69.4	59	54.4	0	0	---	0.00	30.151 
21:00	69.1	69.1	69.1	60	54.6	0	0	---	0.00	30.153 
21:05	68.8	68.8	68.8	61	54.8	0	0	---	0.00	30.153 
21:10	68.3	68.3	68.3	62	54.8	0	0	---	0.00	30.153 
21:15	67.9	67.9	67.9	62	54.4	0	0	---	0.00	30.152 
21:20	67.6	67.6	67.6	63	54.5	0	0	---	0.00	30.152 
21:25	67.1	67.1	67.1	64	54.5	0	0	---	0.00	30.152 
21:30	66.6	66.6	66.6	66	54.9	0	0	---	0.00	30.156 
21:35	66.1	66.1	66.1	67	54.8	0	0	---	0.00	30.156 
21:40	65.6	65.6	65.6	68	54.7	0	0	---	0.00	30.156 
21:45	65.2	65.2	65.2	69	54.8	0	0	---	0.00	30.165 
21:50	64.7	64.7	64.7	70	54.7	0	0	---	0.00	30.165 
21:55	64.3	64.3	64.3	71	54.7	0	0	---	0.00	30.165 
22:00	63.9	63.9	63.9	73	55.1	0	0	---	0.00	30.165 
22:05	63.5	63.5	63.5	74	55.1	0	0	---	0.00	30.165 
22:10	63.1	63.1	63.1	75	55.0	0	0	---	0.00	30.165 
22:15	62.7	62.7	62.7	76	55.0	0	0	---	0.00	30.169 
22:20	62.4	62.4	62.4	77	55.1	0	0	---	0.00	30.169 
22:25	62.3	62.3	62.3	78	55.3	0	0	---	0.00	30.169 
22:30	62.0	62.0	62.0	79	55.4	0	0	---	0.00	30.169 
22:35	61.6	61.6	61.6	80	55.4	0	0	---	0.00	30.169 
22:40	61.5	61.5	61.5	80	55.3	0	0	---	0.00	30.169 
22:45	61.2	61.2	61.2	81	55.3	0	0	---	0.00	30.171 
22:50	61.0	61.0	61.0	81	55.1	0	0	---	0.00	30.171 
22:55	60.7	60.7	60.7	82	55.2	0	0	---	0.00	30.171 
23:00	60.5	60.5	60.5	82	55.0	0	0	---	0.00	30.173 
23:05	60.4	60.4	60.4	83	55.2	0	0	---	0.00	30.173 
23:10	60.2	60.2	60.2	83	55.0	0	0	---	0.00	30.173 
23:15	60.1	60.1	60.1	83	54.9	0	0	---	0.00	30.172 
23:20	59.9	59.9	59.9	84	55.0	0	0	---	0.00	30.172 
23:25	59.8	59.8	59.8	84	55.0	0	0	---	0.00	30.172 
23:30	59.6	59.6	59.6	84	54.8	0	0	---	0.00	30.171 
23:35	59.5	59.5	59.5	85	55.0	0	0	---	0.00	30.171 
23:40	59.3	59.3	59.3	85	54.8	0	0	---	0.00	30.171 
23:45	59.2	59.2	59.2	85	54.7	0	0	---	0.00	30.174 
23:50	59.0	59.0	59.0	86	54.8	0	0	---	0.00	30.174 
23:55	58.9	58.9	58.9	86	54.7	0	0	---	0.00	30.174 

CoCoRaHS
IN-AL-39
A2 Web Hosting
Creative Commons License
GoDaddy
search engine by freefind advanced

loaded 2018-11-13 18:14:45 • last modified 2010-11-18 10:43:29
Privacy PolicyDisclaimer
• wx.awcolley.com is powered by PmWiki v.2002016 •
• all content (unless otherwise noted) © 2018 A W Colley